createdAt,value
2023-08-25T00:01:55.848Z,18.97
2023-08-25T00:04:23.919Z,18.99
2023-08-25T00:06:51.838Z,19.02
2023-08-25T00:09:19.871Z,19.06
2023-08-25T00:11:48.767Z,19.11
2023-08-25T00:14:17.301Z,19.14
2023-08-25T00:16:45.284Z,19.14
2023-08-25T00:19:15.499Z,19.11
2023-08-25T00:21:43.632Z,19.06
2023-08-25T00:24:11.713Z,19.02
2023-08-25T00:26:41.194Z,18.99
2023-08-25T00:29:09.289Z,18.93
2023-08-25T00:31:37.575Z,18.89
2023-08-25T00:34:06.140Z,18.82
2023-08-25T00:36:34.109Z,18.75
2023-08-25T00:39:02.568Z,18.73
2023-08-25T00:41:30.672Z,18.72
2023-08-25T00:43:59.226Z,18.70
2023-08-25T00:46:27.255Z,18.69
2023-08-25T00:48:55.901Z,18.71
2023-08-25T00:51:25.440Z,18.70
2023-08-25T00:53:53.848Z,18.64
2023-08-25T00:56:22.232Z,18.61
2023-08-25T00:58:50.936Z,18.54
2023-08-25T01:01:19.579Z,18.51
2023-08-25T01:03:49.437Z,18.50
2023-08-25T01:06:17.611Z,18.48
2023-08-25T01:08:46.612Z,18.43
2023-08-25T01:11:23.976Z,18.41
2023-08-25T01:14:05.197Z,18.39
2023-08-25T01:16:58.454Z,18.33
2023-08-25T01:19:45.710Z,18.25
2023-08-25T01:22:15.244Z,18.15
2023-08-25T01:24:43.680Z,18.05
2023-08-25T01:27:13.356Z,17.94
2023-08-25T01:29:43.375Z,17.87
2023-08-25T01:32:11.389Z,17.83
2023-08-25T01:34:40.804Z,17.80
2023-08-25T01:37:20.649Z,17.80
2023-08-25T01:39:49.986Z,17.80
2023-08-25T01:42:18.932Z,17.81
2023-08-25T01:44:47.721Z,17.79
2023-08-25T01:47:17.859Z,17.78
2023-08-25T01:49:46.749Z,17.81
2023-08-25T01:52:15.039Z,17.86
2023-08-25T01:54:43.466Z,17.89
2023-08-25T01:57:11.492Z,17.92
2023-08-25T01:59:39.580Z,17.84
2023-08-25T02:02:07.676Z,17.74
2023-08-25T02:04:35.658Z,17.68
2023-08-25T02:07:03.727Z,17.63
2023-08-25T02:09:33.783Z,17.55
2023-08-25T02:12:01.732Z,17.47
2023-08-25T02:14:30.151Z,17.36
2023-08-25T02:16:58.294Z,17.22
2023-08-25T02:19:26.218Z,17.08
2023-08-25T02:21:55.317Z,16.98
2023-08-25T02:24:23.425Z,16.92
2023-08-25T02:26:52.307Z,16.88
2023-08-25T02:29:21.245Z,16.84
2023-08-25T02:31:49.261Z,16.77
2023-08-25T02:34:19.222Z,16.75
2023-08-25T02:36:48.287Z,16.73
2023-08-25T02:39:17.656Z,16.69
2023-08-25T02:41:45.724Z,16.64
2023-08-25T02:44:13.706Z,16.62
2023-08-25T02:46:43.637Z,16.59
2023-08-25T02:49:11.676Z,16.48
2023-08-25T02:51:39.841Z,16.38
2023-08-25T02:54:08.016Z,16.34
2023-08-25T02:56:35.944Z,16.28
2023-08-25T02:59:03.908Z,16.18
2023-08-25T03:01:31.971Z,16.12
2023-08-25T03:04:00.072Z,16.10
2023-08-25T03:06:28.122Z,16.08
2023-08-25T03:08:56.061Z,16.04
2023-08-25T03:11:23.993Z,16.04
2023-08-25T03:13:52.187Z,15.96
2023-08-25T03:16:20.193Z,15.83
2023-08-25T03:18:48.285Z,15.66
2023-08-25T03:21:16.436Z,15.57
2023-08-25T03:23:44.446Z,15.49
2023-08-25T03:26:13.372Z,15.45
2023-08-25T03:28:41.500Z,15.46
2023-08-25T03:31:09.638Z,15.44
2023-08-25T03:33:38.837Z,15.42
2023-08-25T03:36:06.977Z,15.45
2023-08-25T03:38:35.172Z,15.50
2023-08-25T03:41:03.318Z,15.54
2023-08-25T03:43:31.545Z,15.61
2023-08-25T03:45:59.550Z,15.71
2023-08-25T03:48:28.447Z,15.75
2023-08-25T03:50:56.539Z,15.75
2023-08-25T03:53:24.597Z,15.75
2023-08-25T03:55:52.593Z,15.73
2023-08-25T03:58:20.609Z,15.71
2023-08-25T04:00:52.119Z,15.73
2023-08-25T04:03:20.213Z,15.72
2023-08-25T04:05:48.304Z,15.77
2023-08-25T04:08:16.303Z,15.90
2023-08-25T04:10:44.793Z,16.03
2023-08-25T04:13:13.578Z,16.10
2023-08-25T04:15:41.762Z,16.15
2023-08-25T04:18:10.748Z,16.26
2023-08-25T04:20:39.001Z,16.45
2023-08-25T04:23:07.075Z,16.74
2023-08-25T04:25:35.065Z,17.02
2023-08-25T04:28:03.084Z,17.19
2023-08-25T04:30:31.409Z,17.32
2023-08-25T04:33:03.135Z,17.59
2023-08-25T04:35:33.240Z,17.84
2023-08-25T04:38:02.084Z,18.07
2023-08-25T04:40:30.345Z,18.28
2023-08-25T04:42:58.391Z,18.44
2023-08-25T04:45:28.025Z,18.64
2023-08-25T04:47:56.250Z,18.86
2023-08-25T04:50:25.352Z,19.08
2023-08-25T04:52:53.443Z,19.24
2023-08-25T04:55:21.916Z,19.48
2023-08-25T04:57:50.581Z,19.80
2023-08-25T05:00:18.923Z,20.08
2023-08-25T05:02:49.505Z,20.43
2023-08-25T05:05:19.467Z,20.81
2023-08-25T05:07:47.630Z,21.13
2023-08-25T05:10:15.859Z,21.43
2023-08-25T05:12:45.695Z,21.63
2023-08-25T05:15:14.501Z,21.82
2023-08-25T05:17:42.532Z,22.11
2023-08-25T05:20:13.379Z,22.41
2023-08-25T05:22:41.440Z,22.71
2023-08-25T05:25:10.641Z,23.02
2023-08-25T05:27:38.953Z,23.22
2023-08-25T05:30:07.409Z,23.45
2023-08-25T05:32:36.396Z,23.78
2023-08-25T05:35:26.065Z,24.19
2023-08-25T05:37:54.463Z,24.65
2023-08-25T05:40:23.552Z,25.08
2023-08-25T05:42:53.024Z,25.50
2023-08-25T05:45:23.648Z,25.86
2023-08-25T05:47:52.172Z,26.29
2023-08-25T05:50:20.990Z,26.57
2023-08-25T05:52:49.228Z,26.76
2023-08-25T05:55:17.324Z,26.75
2023-08-25T05:57:45.408Z,26.93
2023-08-25T06:00:17.723Z,26.95
2023-08-25T06:02:59.896Z,27.13
2023-08-25T06:05:27.965Z,26.96
2023-08-25T06:07:55.940Z,26.99
2023-08-25T06:10:26.058Z,27.26
2023-08-25T06:12:53.955Z,27.52
2023-08-25T06:15:21.942Z,28.14
2023-08-25T06:17:50.110Z,28.89
2023-08-25T06:20:19.002Z,29.44
2023-08-25T06:22:46.960Z,29.86
2023-08-25T06:25:15.438Z,30.19
2023-08-25T06:27:43.414Z,30.43
2023-08-25T06:30:12.692Z,30.82
2023-08-25T06:32:40.701Z,31.39
2023-08-25T06:35:09.086Z,31.87
2023-08-25T06:37:37.201Z,32.15
2023-08-25T06:40:12.249Z,32.37
2023-08-25T06:42:40.349Z,32.71
2023-08-25T06:45:11.398Z,32.97
2023-08-25T06:47:40.028Z,33.28
2023-08-25T06:50:08.234Z,33.57
2023-08-25T06:52:37.696Z,33.63
2023-08-25T06:55:05.960Z,33.79
2023-08-25T06:57:35.692Z,34.02
2023-08-25T07:00:06.411Z,34.11
2023-08-25T07:02:34.564Z,34.35
2023-08-25T07:05:02.693Z,34.32
2023-08-25T07:07:32.401Z,34.53
2023-08-25T07:10:00.689Z,34.57
2023-08-25T07:12:28.813Z,34.67
2023-08-25T07:14:56.853Z,35.06
2023-08-25T07:17:24.908Z,35.31
2023-08-25T07:19:53.117Z,35.57
2023-08-25T07:22:21.181Z,35.84
2023-08-25T07:24:52.111Z,35.95
2023-08-25T07:27:21.172Z,36.09
2023-08-25T07:29:49.432Z,36.40
2023-08-25T07:32:17.518Z,36.54
2023-08-25T07:34:48.361Z,36.69
2023-08-25T07:37:16.656Z,36.90
2023-08-25T07:39:50.450Z,37.25
2023-08-25T07:42:18.842Z,37.45
2023-08-25T07:44:48.489Z,37.50
2023-08-25T07:47:16.924Z,37.66
2023-08-25T07:49:45.121Z,37.63
2023-08-25T07:52:13.480Z,37.81
2023-08-25T07:54:41.663Z,37.96
2023-08-25T07:57:09.915Z,38.26
2023-08-25T07:59:37.856Z,38.24
2023-08-25T08:02:06.503Z,38.38
2023-08-25T08:04:34.934Z,38.53
2023-08-25T08:07:03.428Z,38.87
2023-08-25T08:09:33.060Z,39.02
2023-08-25T08:12:01.478Z,39.08
2023-08-25T08:14:43.684Z,39.20
2023-08-25T08:17:14.367Z,39.46
2023-08-25T08:19:42.674Z,39.51
2023-08-25T08:22:10.843Z,39.53
2023-08-25T08:24:50.331Z,39.69
2023-08-25T08:27:18.999Z,39.90
2023-08-25T08:29:47.647Z,40.17
2023-08-25T08:32:16.230Z,40.32
2023-08-25T08:34:44.585Z,40.34
2023-08-25T08:37:12.582Z,40.37
2023-08-25T08:39:40.788Z,40.14
2023-08-25T08:42:12.421Z,40.08
2023-08-25T08:44:42.849Z,40.03
2023-08-25T08:47:11.222Z,40.04
2023-08-25T08:49:39.800Z,40.25
2023-08-25T08:52:08.309Z,40.41
2023-08-25T08:54:36.982Z,40.40
2023-08-25T08:57:05.589Z,39.75
2023-08-25T08:59:34.961Z,40.16
2023-08-25T09:02:05.121Z,40.73
2023-08-25T09:04:35.157Z,41.26
2023-08-25T09:07:04.903Z,41.55
2023-08-25T09:09:32.924Z,41.66
2023-08-25T09:12:01.297Z,41.73
2023-08-25T09:14:30.144Z,41.63
2023-08-25T09:17:00.552Z,41.89
2023-08-25T09:19:31.997Z,41.76
2023-08-25T09:22:00.737Z,41.71
2023-08-25T09:24:30.601Z,41.14
2023-08-25T09:26:58.697Z,40.84
2023-08-25T09:29:28.426Z,40.61
2023-08-25T09:31:56.705Z,41.26
2023-08-25T09:34:26.059Z,41.58
2023-08-25T09:36:55.355Z,42.00
2023-08-25T09:39:23.977Z,42.10
2023-08-25T09:41:52.139Z,41.87
2023-08-25T09:44:20.124Z,41.85
2023-08-25T09:46:51.360Z,42.04
2023-08-25T09:49:19.900Z,42.12
2023-08-25T09:51:50.157Z,42.31
2023-08-25T09:54:19.201Z,42.18
2023-08-25T09:56:47.963Z,41.98
2023-08-25T09:59:16.696Z,41.81
2023-08-25T10:01:46.049Z,41.38
2023-08-25T10:04:14.639Z,40.92
2023-08-25T10:06:42.775Z,40.38
2023-08-25T10:09:10.992Z,39.64
2023-08-25T10:11:54.821Z,40.24
2023-08-25T10:14:24.872Z,40.43
2023-08-25T10:16:53.922Z,40.76
2023-08-25T10:19:27.923Z,41.38
2023-08-25T10:21:57.210Z,41.41
2023-08-25T10:24:27.469Z,41.72
2023-08-25T10:26:56.325Z,41.29
2023-08-25T10:29:25.832Z,41.07
2023-08-25T10:32:01.746Z,41.58
2023-08-25T10:34:30.520Z,41.87
2023-08-25T10:37:12.080Z,42.19
2023-08-25T10:39:46.086Z,42.40
2023-08-25T10:42:14.843Z,42.40
2023-08-25T10:44:42.963Z,42.22
2023-08-25T10:47:11.081Z,42.20
2023-08-25T10:49:42.463Z,42.33
2023-08-25T10:52:15.196Z,42.39
2023-08-25T10:54:43.433Z,42.15
2023-08-25T10:57:30.659Z,42.35
2023-08-25T11:00:18.724Z,42.64
2023-08-25T11:02:46.799Z,42.45
2023-08-25T11:05:27.339Z,41.39
2023-08-25T11:07:56.073Z,40.60
2023-08-25T11:10:24.887Z,39.87
2023-08-25T11:13:07.484Z,39.36
2023-08-25T11:15:37.796Z,38.65
2023-08-25T11:18:07.716Z,38.06
2023-08-25T11:20:44.189Z,37.60
2023-08-25T11:23:20.179Z,37.10
2023-08-25T11:25:48.919Z,36.76
2023-08-25T11:28:17.942Z,36.52
2023-08-25T11:30:46.465Z,36.19
2023-08-25T11:33:18.657Z,35.83
2023-08-25T11:35:46.653Z,35.48
2023-08-25T11:38:14.704Z,35.32
2023-08-25T11:40:42.828Z,35.14
2023-08-25T11:43:10.937Z,34.79
2023-08-25T11:45:39.269Z,34.45
2023-08-25T11:48:07.397Z,33.97
2023-08-25T11:50:35.929Z,33.70
2023-08-25T11:53:04.492Z,33.52
2023-08-25T11:55:36.150Z,33.34
2023-08-25T11:58:08.423Z,33.17
2023-08-25T12:00:38.633Z,33.05
2023-08-25T12:03:07.816Z,32.97
2023-08-25T12:05:38.681Z,32.86
2023-08-25T12:08:06.674Z,32.71
2023-08-25T12:10:40.707Z,32.50
2023-08-25T12:13:08.692Z,32.31
2023-08-25T12:15:43.690Z,32.17
2023-08-25T12:18:15.631Z,32.16
2023-08-25T12:20:44.583Z,32.21
2023-08-25T12:23:12.570Z,32.19
2023-08-25T12:25:43.817Z,32.01
2023-08-25T12:28:12.286Z,31.91
2023-08-25T12:30:40.578Z,31.86
2023-08-25T12:33:08.860Z,31.86
2023-08-25T12:35:37.138Z,31.72
2023-08-25T12:38:05.217Z,31.58
2023-08-25T12:40:33.370Z,31.54
2023-08-25T12:43:01.323Z,31.51
2023-08-25T12:45:29.400Z,31.56
2023-08-25T12:47:57.849Z,31.63
2023-08-25T12:50:28.790Z,31.66
2023-08-25T12:52:57.021Z,31.72
2023-08-25T12:55:25.200Z,31.77
2023-08-25T12:57:54.677Z,31.82
2023-08-25T13:00:22.941Z,31.88
2023-08-25T13:02:53.936Z,31.88
2023-08-25T13:05:24.623Z,31.86
2023-08-25T13:07:53.765Z,31.80
2023-08-25T13:10:21.903Z,31.62
2023-08-25T13:12:50.527Z,31.52
2023-08-25T13:15:18.598Z,31.49
2023-08-25T13:17:46.867Z,31.54
2023-08-25T13:20:14.939Z,31.58
2023-08-25T13:22:42.963Z,31.64
2023-08-25T13:25:11.069Z,31.70
2023-08-25T13:27:41.411Z,31.70
2023-08-25T13:30:13.494Z,31.52
2023-08-25T13:32:42.031Z,31.34
2023-08-25T13:35:10.270Z,31.17
2023-08-25T13:37:38.792Z,31.05
2023-08-25T13:40:07.313Z,30.99
2023-08-25T13:42:35.523Z,31.00
2023-08-25T13:45:04.710Z,31.08
2023-08-25T13:47:32.799Z,31.21
2023-08-25T13:50:01.204Z,31.29
2023-08-25T13:52:29.746Z,31.38
2023-08-25T13:54:58.426Z,31.43
2023-08-25T13:57:27.218Z,31.40
2023-08-25T13:59:55.950Z,31.30
2023-08-25T14:02:24.068Z,31.22
2023-08-25T14:04:52.222Z,31.23
2023-08-25T14:07:20.246Z,31.18
2023-08-25T14:09:48.274Z,31.15
2023-08-25T14:12:17.752Z,31.16
2023-08-25T14:14:45.879Z,31.10
2023-08-25T14:17:13.842Z,31.00
2023-08-25T14:19:41.833Z,30.95
2023-08-25T14:22:09.776Z,30.91
2023-08-25T14:24:37.792Z,30.88
2023-08-25T14:27:06.314Z,30.83
2023-08-25T14:29:35.441Z,30.74
2023-08-25T14:32:04.174Z,30.62
2023-08-25T14:34:33.985Z,30.60
2023-08-25T14:37:02.273Z,30.60
2023-08-25T14:39:30.325Z,30.64
2023-08-25T14:41:58.303Z,30.60
2023-08-25T14:44:26.345Z,30.57
2023-08-25T14:46:54.332Z,30.57
2023-08-25T14:49:23.598Z,30.57
2023-08-25T14:51:51.655Z,30.53
2023-08-25T14:54:19.697Z,30.45
2023-08-25T14:56:47.820Z,30.35
2023-08-25T14:59:15.672Z,30.31
2023-08-25T15:01:43.800Z,30.29
2023-08-25T15:04:12.209Z,30.25
2023-08-25T15:06:40.503Z,30.25
2023-08-25T15:09:09.445Z,30.24
2023-08-25T15:11:37.410Z,30.22
2023-08-25T15:14:05.363Z,30.18
2023-08-25T15:16:33.335Z,30.14
2023-08-25T15:19:01.270Z,30.10
2023-08-25T15:21:29.491Z,30.06
2023-08-25T15:23:57.526Z,30.01
2023-08-25T15:26:25.456Z,29.96
2023-08-25T15:28:53.553Z,29.89
2023-08-25T15:31:22.300Z,29.83
2023-08-25T15:33:50.526Z,29.79
2023-08-25T15:36:20.093Z,29.72
2023-08-25T15:38:48.098Z,29.67
2023-08-25T15:41:18.985Z,29.63
2023-08-25T15:43:47.247Z,29.57
2023-08-25T15:46:15.317Z,29.50
2023-08-25T15:48:43.530Z,29.47
2023-08-25T15:51:11.679Z,29.39
2023-08-25T15:53:39.630Z,29.33
2023-08-25T15:56:09.057Z,29.26
2023-08-25T15:58:37.118Z,29.17
2023-08-25T16:01:09.871Z,29.06
2023-08-25T16:03:38.184Z,28.98
2023-08-25T16:06:06.722Z,28.91
2023-08-25T16:08:34.698Z,28.85
2023-08-25T16:11:04.077Z,28.79
2023-08-25T16:13:32.452Z,28.73
2023-08-25T16:16:00.549Z,28.66
2023-08-25T16:18:28.487Z,28.58
2023-08-25T16:21:05.917Z,28.51
2023-08-25T16:23:36.450Z,28.43
2023-08-25T16:26:04.824Z,28.38
2023-08-25T16:28:33.460Z,28.33
2023-08-25T16:31:02.578Z,28.27
2023-08-25T16:33:31.845Z,28.22
2023-08-25T16:36:00.458Z,28.15
2023-08-25T16:38:28.496Z,28.07
2023-08-25T16:40:56.761Z,28.00
2023-08-25T16:43:25.025Z,27.92
2023-08-25T16:45:53.200Z,27.87
2023-08-25T16:48:23.882Z,27.77
2023-08-25T16:50:52.218Z,27.67
2023-08-25T16:53:20.509Z,27.58
2023-08-25T16:55:48.505Z,27.47
2023-08-25T16:58:16.882Z,27.35
2023-08-25T17:00:47.344Z,27.27
2023-08-25T17:03:15.792Z,27.19
2023-08-25T17:05:44.545Z,27.13
2023-08-25T17:08:13.951Z,27.06
2023-08-25T17:10:43.144Z,26.95
2023-08-25T17:13:11.306Z,26.85
2023-08-25T17:15:39.351Z,26.75
2023-08-25T17:18:07.460Z,26.69
2023-08-25T17:20:35.496Z,26.63
2023-08-25T17:23:04.514Z,26.57
2023-08-25T17:25:32.571Z,26.49
2023-08-25T17:28:00.639Z,26.40
2023-08-25T17:30:28.869Z,26.31
2023-08-25T17:32:57.362Z,26.20
2023-08-25T17:35:25.878Z,26.11
2023-08-25T17:37:54.435Z,26.02
2023-08-25T17:40:22.658Z,25.89
2023-08-25T17:42:50.652Z,25.73
2023-08-25T17:45:18.969Z,25.62
2023-08-25T17:47:48.187Z,25.52
2023-08-25T17:50:16.382Z,25.36
2023-08-25T17:52:44.475Z,25.25
2023-08-25T17:55:14.398Z,25.17
2023-08-25T17:57:45.122Z,25.13
2023-08-25T18:00:13.390Z,25.10
2023-08-25T18:02:41.517Z,25.07
2023-08-25T18:05:10.147Z,25.03
2023-08-25T18:07:38.208Z,24.98
2023-08-25T18:10:06.776Z,24.91
2023-08-25T18:12:34.727Z,24.84
2023-08-25T18:15:02.815Z,24.78
2023-08-25T18:17:30.864Z,24.69
2023-08-25T18:19:58.902Z,24.50
2023-08-25T18:22:26.817Z,24.26
2023-08-25T18:24:54.824Z,24.03
2023-08-25T18:27:23.284Z,23.81
2023-08-25T18:29:51.327Z,23.65
2023-08-25T18:32:19.692Z,23.47
2023-08-25T18:34:47.777Z,23.35
2023-08-25T18:37:15.709Z,23.29
2023-08-25T18:39:43.678Z,23.27
2023-08-25T18:42:11.682Z,23.21
2023-08-25T18:44:40.982Z,23.18
2023-08-25T18:47:09.214Z,23.13
2023-08-25T18:49:37.467Z,23.00
2023-08-25T18:52:05.726Z,22.93
2023-08-25T18:54:33.869Z,22.90
2023-08-25T18:57:01.800Z,22.92
2023-08-25T18:59:30.089Z,22.95
2023-08-25T19:01:58.094Z,22.93
2023-08-25T19:04:26.086Z,22.87
2023-08-25T19:06:54.714Z,22.83
2023-08-25T19:09:23.112Z,22.73
2023-08-25T19:11:51.085Z,22.70
2023-08-25T19:14:19.069Z,22.62
2023-08-25T19:16:47.136Z,22.56
2023-08-25T19:19:15.448Z,22.49
2023-08-25T19:21:46.331Z,22.40
2023-08-25T19:24:14.343Z,22.32
2023-08-25T19:26:42.513Z,22.31
2023-08-25T19:29:10.585Z,22.30
2023-08-25T19:31:39.468Z,22.21
2023-08-25T19:34:07.698Z,22.16
2023-08-25T19:36:39.549Z,22.21
2023-08-25T19:39:10.817Z,22.25
2023-08-25T19:41:38.881Z,22.27
2023-08-25T19:44:06.949Z,22.32
2023-08-25T19:46:35.479Z,22.37
2023-08-25T19:49:04.897Z,22.43
2023-08-25T19:51:32.907Z,22.48
2023-08-25T19:54:01.482Z,22.49
2023-08-25T19:56:29.770Z,22.48
2023-08-25T19:58:57.757Z,22.46
2023-08-25T20:01:25.967Z,22.42
2023-08-25T20:03:54.296Z,22.41
2023-08-25T20:06:22.432Z,22.36
2023-08-25T20:08:50.478Z,22.33
2023-08-25T20:11:20.367Z,22.31
2023-08-25T20:13:48.681Z,22.30
2023-08-25T20:16:17.305Z,22.31
2023-08-25T20:18:45.609Z,22.31
2023-08-25T20:21:13.949Z,22.29
2023-08-25T20:23:42.103Z,22.26
2023-08-25T20:26:10.509Z,22.24
2023-08-25T20:28:41.470Z,22.22
2023-08-25T20:31:09.641Z,22.22
2023-08-25T20:33:38.137Z,22.21
2023-08-25T20:36:06.690Z,22.20
2023-08-25T20:38:34.792Z,22.18
2023-08-25T20:41:03.827Z,22.20
2023-08-25T20:43:32.079Z,22.20
2023-08-25T20:46:15.724Z,22.17
2023-08-25T20:48:44.968Z,22.14
2023-08-25T20:51:13.127Z,22.14
2023-08-25T20:53:41.216Z,22.13
2023-08-25T20:56:09.536Z,22.14
2023-08-25T20:58:37.479Z,22.15
2023-08-25T21:01:05.488Z,22.16
2023-08-25T21:03:34.893Z,22.25
2023-08-25T21:06:03.307Z,22.30
2023-08-25T21:08:31.523Z,22.32
2023-08-25T21:10:59.725Z,22.30
2023-08-25T21:13:27.809Z,22.29
2023-08-25T21:15:55.814Z,22.25
2023-08-25T21:18:23.896Z,22.21
2023-08-25T21:20:53.323Z,22.18
2023-08-25T21:23:23.000Z,22.14
2023-08-25T21:25:52.322Z,22.07
2023-08-25T21:28:23.744Z,22.04
2023-08-25T21:30:58.933Z,22.01
2023-08-25T21:33:28.243Z,22.01
2023-08-25T21:35:56.379Z,22.00
2023-08-25T21:38:24.591Z,22.00
2023-08-25T21:40:52.817Z,21.99
2023-08-25T21:43:21.048Z,21.99
2023-08-25T21:45:49.551Z,21.97
2023-08-25T21:48:18.021Z,21.94
2023-08-25T21:50:47.107Z,21.91
2023-08-25T21:53:15.169Z,21.89
2023-08-25T21:55:45.242Z,21.86
2023-08-25T21:58:13.728Z,21.82
2023-08-25T22:00:42.338Z,21.78
2023-08-25T22:03:10.703Z,21.75
2023-08-25T22:05:38.771Z,21.74
2023-08-25T22:08:07.450Z,21.72
2023-08-25T22:10:39.487Z,21.70
2023-08-25T22:13:08.629Z,21.67
2023-08-25T22:15:37.791Z,21.65
2023-08-25T22:18:06.255Z,21.64
2023-08-25T22:20:34.432Z,21.64
2023-08-25T22:23:02.527Z,21.63
2023-08-25T22:25:30.684Z,21.61
2023-08-25T22:27:58.961Z,21.59
2023-08-25T22:30:27.137Z,21.58
2023-08-25T22:35:26.198Z,21.55
2023-08-25T22:37:54.631Z,21.50
2023-08-25T22:40:23.076Z,21.47
2023-08-25T22:42:51.367Z,21.41
2023-08-25T22:45:20.207Z,21.37
2023-08-25T22:47:48.515Z,21.32
2023-08-25T22:50:16.680Z,21.31
2023-08-25T22:52:44.738Z,21.31
2023-08-25T22:55:12.815Z,21.31
2023-08-25T22:57:40.864Z,21.32
2023-08-25T23:00:09.993Z,21.35
2023-08-25T23:02:38.198Z,21.38
2023-08-25T23:05:06.617Z,21.41
2023-08-25T23:07:34.777Z,21.44
2023-08-25T23:10:03.731Z,21.48
2023-08-25T23:12:31.746Z,21.51
2023-08-25T23:15:00.026Z,21.53
2023-08-25T23:17:28.114Z,21.55
2023-08-25T23:19:56.264Z,21.54
2023-08-25T23:22:24.270Z,21.54
2023-08-25T23:24:52.569Z,21.49
2023-08-25T23:27:20.459Z,21.46
2023-08-25T23:29:48.434Z,21.45
2023-08-25T23:32:16.637Z,21.42
2023-08-25T23:34:44.695Z,21.41
2023-08-25T23:37:13.005Z,21.40
2023-08-25T23:39:41.109Z,21.40
2023-08-25T23:42:09.352Z,21.38
2023-08-25T23:44:37.300Z,21.37
2023-08-25T23:47:05.311Z,21.35
2023-08-25T23:49:33.267Z,21.33
2023-08-25T23:52:01.251Z,21.31
2023-08-25T23:54:29.627Z,21.30
2023-08-25T23:56:57.637Z,21.28
2023-08-25T23:59:25.619Z,21.26
